Higgins, Oklahoma
Current Conditions -  °F | °C
As of 9:53 PM on Tuesday 21 Oct 2014 (Local Time) from KMLC Reporting Station
Broken Clouds Broken Clouds  
Wind Chill: 62°   Ceiling: 6500
Heat Index: 62°   Visibility: 8mi
Dew Point: 60°   Wind: 0mph
Humidity: 93%   Direction: NA
Pressure: 30.08"   Gusts: NA
Location:  34.8806°N, 95.3086°W
Report Text: KMLC 220253Z AUTO 00000KT 8SM BKN065 BKN100 17/16 A3008 RMK AO2 SLP181 T01670156 52015
Loading
Personal Weather Stations






























Interactive Weather Map New forecast layout! Learn more

10-Day Weather Forecast

Advertisements
Track Severe Weather on mobile